Pledger, TX (77468)

1:30 PM CDT on August 30, 2015 (GMT -0500)
Boling-Iago | | Change Station
CLOSE
Current Station
Personal Weather Station
Location: Boling-Iago, TX
Elevation: 92 ft
Nearby Weather Stations

Elev 92 ft 29.27 °N, 95.95 °W | Updated 56 seconds ago

Partly Cloudy
Partly Cloudy
89.0 °F
Feels Like 97 °F
N
1.0
Wind Variable Wind from SE
Gusts 3.0 mph

Today
High -- | Low -- °F
--% Chance of Precip.
Yesterday
High -- | Low -- °F
Precip. -- in
7:00 AM 7:47 PM
Full, 99% visible
Pressure 30.01 in
Visibility 10.0 miles
Clouds Mostly Cloudy 4300 ft
Heat Index 97 °F
Dew Point 73 °F
Humidity 59%
Rainfall 0.00 in
Snow Depth Not available.
UV 1.6 out of 12
Pollen 5.80 out of 12
Air Quality Not available.
Flu Activity Not available.
METAR KBYY 301815Z AUTO 05004KT 10SM BKN043 31/20 A3001 RMK AO2 T03130208
Pressure 30.01 in
Visibility 10.0 miles
Clouds Mostly Cloudy 4300 ft
Heat Index 97 °F
Dew Point 73 °F
Humidity 59%
Rainfall 0.00 in
Snow Depth Not available.
UV 1.6 out of 12
Pollen 5.80 out of 12
Air Quality Not available.
Flu Activity Not available.
METAR KBYY 301815Z AUTO 05004KT 10SM BKN043 31/20 A3001 RMK AO2 T03130208

10-Day Weather Forecast

×

Almanac

Astronomy

Aug. 30, 2015 Rise Set
Actual Time
Civil Twilight
Nautical Twilight
Astronomical Twilight
Moon
Length of Visible Light
Length of Day
Tomorrow will be .
, % of the Moon is Illuminated

Today's Extremes

State Highs State Lows

Community

WunderPhotos

Upload Photos

1,851,031 photos uploaded!

WunderBlogs® & News

Nearby

Air Quality

  Air Quality AQ Index Pollutant
Not available.

Snow Depth

Station Depth Elevation

Earthquake Activity

City Distance Mag. Time & Date
Minimum magnitude displayed is 2.5.

Coastal Water Temperatures

Place Temperature

Stations

Nearby Weather Stations

Station Location Temp. Windchill Dew Point Humidity Wind Precip. Elev Updated Type